sensor_id;sensor_type;location;lat;lon;timestamp;temperature;humidity
14727;DHT22;7454;51.256;8.176;2022-10-19T00:01:04;9.50;81.60
14727;DHT22;7454;51.256;8.176;2022-10-19T00:03:33;9.50;81.60
14727;DHT22;7454;51.256;8.176;2022-10-19T00:06:08;9.50;81.50
14727;DHT22;7454;51.256;8.176;2022-10-19T00:08:55;9.40;81.70
14727;DHT22;7454;51.256;8.176;2022-10-19T00:11:22;9.40;81.60
14727;DHT22;7454;51.256;8.176;2022-10-19T00:13:48;9.40;82.00
14727;DHT22;7454;51.256;8.176;2022-10-19T00:16:15;9.40;81.50
14727;DHT22;7454;51.256;8.176;2022-10-19T00:18:41;9.40;81.70
14727;DHT22;7454;51.256;8.176;2022-10-19T00:21:11;9.40;81.60
14727;DHT22;7454;51.256;8.176;2022-10-19T00:23:39;9.40;81.50
14727;DHT22;7454;51.256;8.176;2022-10-19T00:26:05;9.40;81.50
14727;DHT22;7454;51.256;8.176;2022-10-19T00:28:31;9.40;81.60
14727;DHT22;7454;51.256;8.176;2022-10-19T00:31:00;9.30;81.40
14727;DHT22;7454;51.256;8.176;2022-10-19T00:33:27;9.30;81.40
14727;DHT22;7454;51.256;8.176;2022-10-19T00:35:52;9.30;81.30
14727;DHT22;7454;51.256;8.176;2022-10-19T00:38:19;9.40;81.70
14727;DHT22;7454;51.256;8.176;2022-10-19T00:40:45;9.20;81.60
14727;DHT22;7454;51.256;8.176;2022-10-19T00:43:12;9.20;81.50
14727;DHT22;7454;51.256;8.176;2022-10-19T00:45:39;9.20;81.60
14727;DHT22;7454;51.256;8.176;2022-10-19T00:48:05;9.20;81.60
14727;DHT22;7454;51.256;8.176;2022-10-19T00:50:31;9.20;81.60
14727;DHT22;7454;51.256;8.176;2022-10-19T00:52:56;9.20;81.80
14727;DHT22;7454;51.256;8.176;2022-10-19T00:55:22;9.10;81.00
14727;DHT22;7454;51.256;8.176;2022-10-19T00:57:48;9.10;81.40
14727;DHT22;7454;51.256;8.176;2022-10-19T01:00:14;9.20;81.50
14727;DHT22;7454;51.256;8.176;2022-10-19T01:02:40;9.10;81.20
14727;DHT22;7454;51.256;8.176;2022-10-19T01:05:05;9.10;81.30
14727;DHT22;7454;51.256;8.176;2022-10-19T01:07:32;9.10;81.40
14727;DHT22;7454;51.256;8.176;2022-10-19T01:09:58;9.10;81.40
14727;DHT22;7454;51.256;8.176;2022-10-19T01:12:40;9.10;81.50
14727;DHT22;7454;51.256;8.176;2022-10-19T01:15:28;9.10;81.40
14727;DHT22;7454;51.256;8.176;2022-10-19T01:35:06;8.90;81.40
14727;DHT22;7454;51.256;8.176;2022-10-19T01:37:33;8.90;81.30
14727;DHT22;7454;51.256;8.176;2022-10-19T01:40:03;8.90;81.30
14727;DHT22;7454;51.256;8.176;2022-10-19T01:43:00;9.00;81.60
14727;DHT22;7454;51.256;8.176;2022-10-19T01:45:51;9.00;81.30
14727;DHT22;7454;51.256;8.176;2022-10-19T01:48:20;8.90;81.40
14727;DHT22;7454;51.256;8.176;2022-10-19T01:53:27;8.90;81.60
14727;DHT22;7454;51.256;8.176;2022-10-19T01:55:55;8.90;81.50
14727;DHT22;7454;51.256;8.176;2022-10-19T01:58:23;8.80;81.30
14727;DHT22;7454;51.256;8.176;2022-10-19T02:00:51;8.90;81.50
14727;DHT22;7454;51.256;8.176;2022-10-19T02:03:18;8.90;81.80
14727;DHT22;7454;51.256;8.176;2022-10-19T02:05:44;8.90;81.50
14727;DHT22;7454;51.256;8.176;2022-10-19T02:08:12;8.90;81.60
14727;DHT22;7454;51.256;8.176;2022-10-19T02:10:41;8.90;81.70
14727;DHT22;7454;51.256;8.176;2022-10-19T02:13:08;8.90;81.50
14727;DHT22;7454;51.256;8.176;2022-10-19T02:15:35;8.80;81.40
14727;DHT22;7454;51.256;8.176;2022-10-19T02:18:02;8.90;81.50
14727;DHT22;7454;51.256;8.176;2022-10-19T02:20:28;8.90;81.50
14727;DHT22;7454;51.256;8.176;2022-10-19T02:22:54;8.90;81.00
14727;DHT22;7454;51.256;8.176;2022-10-19T02:25:21;8.90;81.30
14727;DHT22;7454;51.256;8.176;2022-10-19T02:27:48;8.90;81.40
14727;DHT22;7454;51.256;8.176;2022-10-19T02:30:15;8.90;81.40
14727;DHT22;7454;51.256;8.176;2022-10-19T02:32:42;8.90;81.20
14727;DHT22;7454;51.256;8.176;2022-10-19T02:35:08;8.80;81.40
14727;DHT22;7454;51.256;8.176;2022-10-19T02:37:34;8.80;81.30
14727;DHT22;7454;51.256;8.176;2022-10-19T02:40:00;8.80;81.40
14727;DHT22;7454;51.256;8.176;2022-10-19T02:42:27;8.90;81.50
14727;DHT22;7454;51.256;8.176;2022-10-19T02:44:58;8.70;81.20
14727;DHT22;7454;51.256;8.176;2022-10-19T02:47:41;8.80;81.30
14727;DHT22;7454;51.256;8.176;2022-10-19T02:50:08;8.70;81.30
14727;DHT22;7454;51.256;8.176;2022-10-19T02:52:35;8.70;81.20
14727;DHT22;7454;51.256;8.176;2022-10-19T02:55:01;8.70;81.30
14727;DHT22;7454;51.256;8.176;2022-10-19T02:57:27;8.70;81.50
14727;DHT22;7454;51.256;8.176;2022-10-19T02:59:53;8.70;81.20
14727;DHT22;7454;51.256;8.176;2022-10-19T03:02:19;8.60;81.40
14727;DHT22;7454;51.256;8.176;2022-10-19T03:04:45;8.60;81.00
14727;DHT22;7454;51.256;8.176;2022-10-19T03:07:12;8.60;81.10
14727;DHT22;7454;51.256;8.176;2022-10-19T03:09:39;8.60;81.00
14727;DHT22;7454;51.256;8.176;2022-10-19T03:12:05;8.50;81.10
14727;DHT22;7454;51.256;8.176;2022-10-19T03:14:31;8.50;81.20
14727;DHT22;7454;51.256;8.176;2022-10-19T03:16:56;8.60;81.20
14727;DHT22;7454;51.256;8.176;2022-10-19T03:19:22;8.50;81.20
14727;DHT22;7454;51.256;8.176;2022-10-19T03:21:48;8.50;80.90
14727;DHT22;7454;51.256;8.176;2022-10-19T03:24:13;8.40;81.10
14727;DHT22;7454;51.256;8.176;2022-10-19T03:26:39;8.50;81.00
14727;DHT22;7454;51.256;8.176;2022-10-19T03:29:05;8.50;81.10
14727;DHT22;7454;51.256;8.176;2022-10-19T03:31:31;8.50;81.10
14727;DHT22;7454;51.256;8.176;2022-10-19T03:33:56;8.50;80.90
14727;DHT22;7454;51.256;8.176;2022-10-19T03:36:23;8.50;80.80
14727;DHT22;7454;51.256;8.176;2022-10-19T03:38:53;8.40;80.80
14727;DHT22;7454;51.256;8.176;2022-10-19T03:41:21;8.40;80.90
14727;DHT22;7454;51.256;8.176;2022-10-19T03:43:47;8.40;80.90
14727;DHT22;7454;51.256;8.176;2022-10-19T03:46:13;8.30;81.10
14727;DHT22;7454;51.256;8.176;2022-10-19T03:48:39;8.30;81.10
14727;DHT22;7454;51.256;8.176;2022-10-19T03:51:06;8.30;81.20
14727;DHT22;7454;51.256;8.176;2022-10-19T03:53:33;8.30;81.30
14727;DHT22;7454;51.256;8.176;2022-10-19T03:56:03;8.30;81.20
14727;DHT22;7454;51.256;8.176;2022-10-19T03:58:31;8.30;81.30
14727;DHT22;7454;51.256;8.176;2022-10-19T04:00:58;8.40;81.30
14727;DHT22;7454;51.256;8.176;2022-10-19T04:03:24;8.40;81.60
14727;DHT22;7454;51.256;8.176;2022-10-19T04:05:49;8.40;81.50
14727;DHT22;7454;51.256;8.176;2022-10-19T04:08:15;8.50;81.70
14727;DHT22;7454;51.256;8.176;2022-10-19T04:10:41;8.50;81.80
14727;DHT22;7454;51.256;8.176;2022-10-19T04:13:07;8.50;81.40
14727;DHT22;7454;51.256;8.176;2022-10-19T04:15:32;8.50;81.50
14727;DHT22;7454;51.256;8.176;2022-10-19T04:17:58;8.40;81.40
14727;DHT22;7454;51.256;8.176;2022-10-19T04:20:23;8.40;81.60
14727;DHT22;7454;51.256;8.176;2022-10-19T04:22:51;8.50;81.40
14727;DHT22;7454;51.256;8.176;2022-10-19T04:25:17;8.40;81.50
14727;DHT22;7454;51.256;8.176;2022-10-19T04:27:42;8.40;81.50
14727;DHT22;7454;51.256;8.176;2022-10-19T04:30:09;8.40;81.50
14727;DHT22;7454;51.256;8.176;2022-10-19T04:32:35;8.40;81.50
14727;DHT22;7454;51.256;8.176;2022-10-19T04:35:01;8.40;81.60
14727;DHT22;7454;51.256;8.176;2022-10-19T04:37:26;8.40;81.60
14727;DHT22;7454;51.256;8.176;2022-10-19T04:39:52;8.50;81.90
14727;DHT22;7454;51.256;8.176;2022-10-19T04:42:17;8.50;81.80
14727;DHT22;7454;51.256;8.176;2022-10-19T04:44:43;8.60;81.80
14727;DHT22;7454;51.256;8.176;2022-10-19T04:47:08;8.60;81.30
14727;DHT22;7454;51.256;8.176;2022-10-19T04:49:34;8.50;81.60
14727;DHT22;7454;51.256;8.176;2022-10-19T04:52:00;8.50;81.50
14727;DHT22;7454;51.256;8.176;2022-10-19T04:54:25;8.50;81.80
14727;DHT22;7454;51.256;8.176;2022-10-19T04:56:51;8.50;81.60
14727;DHT22;7454;51.256;8.176;2022-10-19T04:59:18;8.50;81.60
14727;DHT22;7454;51.256;8.176;2022-10-19T05:01:44;8.50;81.70
14727;DHT22;7454;51.256;8.176;2022-10-19T05:04:09;8.60;81.60
14727;DHT22;7454;51.256;8.176;2022-10-19T05:06:35;8.50;81.30
14727;DHT22;7454;51.256;8.176;2022-10-19T05:09:01;8.50;81.30
14727;DHT22;7454;51.256;8.176;2022-10-19T05:11:27;8.50;81.70
14727;DHT22;7454;51.256;8.176;2022-10-19T05:13:53;8.50;81.70
14727;DHT22;7454;51.256;8.176;2022-10-19T05:16:21;8.50;81.90
14727;DHT22;7454;51.256;8.176;2022-10-19T05:18:48;8.50;82.00
14727;DHT22;7454;51.256;8.176;2022-10-19T05:21:14;8.50;81.90
14727;DHT22;7454;51.256;8.176;2022-10-19T05:23:40;8.60;81.70
14727;DHT22;7454;51.256;8.176;2022-10-19T05:26:07;8.50;81.40
14727;DHT22;7454;51.256;8.176;2022-10-19T05:28:35;8.50;81.50
14727;DHT22;7454;51.256;8.176;2022-10-19T05:31:04;8.50;81.50
14727;DHT22;7454;51.256;8.176;2022-10-19T05:33:34;8.50;81.10
14727;DHT22;7454;51.256;8.176;2022-10-19T05:36:08;8.40;81.00
14727;DHT22;7454;51.256;8.176;2022-10-19T05:38:38;8.40;80.90
14727;DHT22;7454;51.256;8.176;2022-10-19T05:41:03;8.30;80.90
14727;DHT22;7454;51.256;8.176;2022-10-19T05:43:29;8.20;81.10
14727;DHT22;7454;51.256;8.176;2022-10-19T05:45:55;8.20;81.30
14727;DHT22;7454;51.256;8.176;2022-10-19T05:48:20;8.30;81.60
14727;DHT22;7454;51.256;8.176;2022-10-19T05:50:53;8.30;81.20
14727;DHT22;7454;51.256;8.176;2022-10-19T05:53:19;8.40;81.40
14727;DHT22;7454;51.256;8.176;2022-10-19T05:55:44;8.30;81.20
14727;DHT22;7454;51.256;8.176;2022-10-19T05:58:10;8.30;81.20
14727;DHT22;7454;51.256;8.176;2022-10-19T06:00:36;8.30;81.00
14727;DHT22;7454;51.256;8.176;2022-10-19T06:03:01;8.30;81.10
14727;DHT22;7454;51.256;8.176;2022-10-19T06:05:27;8.30;81.30
14727;DHT22;7454;51.256;8.176;2022-10-19T06:07:52;8.30;81.40
14727;DHT22;7454;51.256;8.176;2022-10-19T06:10:18;8.30;81.40
14727;DHT22;7454;51.256;8.176;2022-10-19T06:12:45;8.40;81.20
14727;DHT22;7454;51.256;8.176;2022-10-19T06:15:11;8.30;81.00
14727;DHT22;7454;51.256;8.176;2022-10-19T06:17:37;8.40;81.20
14727;DHT22;7454;51.256;8.176;2022-10-19T06:20:03;8.30;81.30
14727;DHT22;7454;51.256;8.176;2022-10-19T06:22:29;8.30;80.60
14727;DHT22;7454;51.256;8.176;2022-10-19T06:24:54;8.40;81.10
14727;DHT22;7454;51.256;8.176;2022-10-19T06:27:20;8.40;81.00
14727;DHT22;7454;51.256;8.176;2022-10-19T06:29:47;8.40;80.90
14727;DHT22;7454;51.256;8.176;2022-10-19T06:32:12;8.40;81.20
14727;DHT22;7454;51.256;8.176;2022-10-19T06:34:38;8.40;81.00
14727;DHT22;7454;51.256;8.176;2022-10-19T06:37:04;8.40;80.70
14727;DHT22;7454;51.256;8.176;2022-10-19T06:39:29;8.30;80.60
14727;DHT22;7454;51.256;8.176;2022-10-19T06:41:55;8.30;80.80
14727;DHT22;7454;51.256;8.176;2022-10-19T06:44:23;8.20;81.00
14727;DHT22;7454;51.256;8.176;2022-10-19T06:46:49;8.20;80.70
14727;DHT22;7454;51.256;8.176;2022-10-19T06:49:15;8.20;80.90
14727;DHT22;7454;51.256;8.176;2022-10-19T06:51:40;8.20;81.10
14727;DHT22;7454;51.256;8.176;2022-10-19T06:54:06;8.20;81.20
14727;DHT22;7454;51.256;8.176;2022-10-19T06:56:32;8.20;81.50
14727;DHT22;7454;51.256;8.176;2022-10-19T06:58:57;8.30;81.20
14727;DHT22;7454;51.256;8.176;2022-10-19T07:01:23;8.20;80.90
14727;DHT22;7454;51.256;8.176;2022-10-19T07:03:50;8.30;81.50
14727;DHT22;7454;51.256;8.176;2022-10-19T07:06:16;8.30;81.20
14727;DHT22;7454;51.256;8.176;2022-10-19T07:08:42;8.30;81.00
14727;DHT22;7454;51.256;8.176;2022-10-19T07:11:09;8.30;81.20
14727;DHT22;7454;51.256;8.176;2022-10-19T07:13:36;8.30;81.20
14727;DHT22;7454;51.256;8.176;2022-10-19T07:16:03;8.30;81.50
14727;DHT22;7454;51.256;8.176;2022-10-19T07:18:31;8.40;81.50
14727;DHT22;7454;51.256;8.176;2022-10-19T07:20:59;8.40;81.10
14727;DHT22;7454;51.256;8.176;2022-10-19T07:23:26;8.30;81.10
14727;DHT22;7454;51.256;8.176;2022-10-19T07:25:53;8.30;81.00
14727;DHT22;7454;51.256;8.176;2022-10-19T07:28:24;8.40;81.00
14727;DHT22;7454;51.256;8.176;2022-10-19T07:30:50;8.40;81.40
14727;DHT22;7454;51.256;8.176;2022-10-19T07:33:15;8.40;81.20
14727;DHT22;7454;51.256;8.176;2022-10-19T07:35:41;8.50;81.50
14727;DHT22;7454;51.256;8.176;2022-10-19T07:38:07;8.50;81.10
14727;DHT22;7454;51.256;8.176;2022-10-19T07:40:33;8.50;80.90
14727;DHT22;7454;51.256;8.176;2022-10-19T07:42:59;8.50;80.50
14727;DHT22;7454;51.256;8.176;2022-10-19T07:45:24;8.40;80.60
14727;DHT22;7454;51.256;8.176;2022-10-19T07:47:50;8.50;81.10
14727;DHT22;7454;51.256;8.176;2022-10-19T07:50:16;8.50;81.40
14727;DHT22;7454;51.256;8.176;2022-10-19T07:52:41;8.50;81.30
14727;DHT22;7454;51.256;8.176;2022-10-19T07:55:07;8.50;80.80
14727;DHT22;7454;51.256;8.176;2022-10-19T07:57:33;8.50;81.00
14727;DHT22;7454;51.256;8.176;2022-10-19T07:59:59;8.50;81.10
14727;DHT22;7454;51.256;8.176;2022-10-19T08:02:25;8.50;80.90
14727;DHT22;7454;51.256;8.176;2022-10-19T08:04:51;8.50;81.40
14727;DHT22;7454;51.256;8.176;2022-10-19T08:07:16;8.50;80.80
14727;DHT22;7454;51.256;8.176;2022-10-19T08:09:42;8.40;80.80
14727;DHT22;7454;51.256;8.176;2022-10-19T08:12:07;8.50;81.00
14727;DHT22;7454;51.256;8.176;2022-10-19T08:14:33;8.50;81.10
14727;DHT22;7454;51.256;8.176;2022-10-19T08:16:59;8.40;81.00
14727;DHT22;7454;51.256;8.176;2022-10-19T08:19:25;8.50;80.90
14727;DHT22;7454;51.256;8.176;2022-10-19T08:21:51;8.40;80.90
14727;DHT22;7454;51.256;8.176;2022-10-19T08:24:17;8.40;81.20
14727;DHT22;7454;51.256;8.176;2022-10-19T08:26:43;8.40;81.30
14727;DHT22;7454;51.256;8.176;2022-10-19T08:29:11;8.50;81.10
14727;DHT22;7454;51.256;8.176;2022-10-19T08:31:38;8.50;81.10
14727;DHT22;7454;51.256;8.176;2022-10-19T08:34:04;8.50;81.70
14727;DHT22;7454;51.256;8.176;2022-10-19T08:36:30;8.60;81.30
14727;DHT22;7454;51.256;8.176;2022-10-19T08:38:57;8.50;81.30
14727;DHT22;7454;51.256;8.176;2022-10-19T08:44:25;8.60;81.40
14727;DHT22;7454;51.256;8.176;2022-10-19T08:49:34;8.70;81.40
14727;DHT22;7454;51.256;8.176;2022-10-19T08:52:04;8.70;81.40
14727;DHT22;7454;51.256;8.176;2022-10-19T08:54:37;8.80;81.90
14727;DHT22;7454;51.256;8.176;2022-10-19T08:57:53;8.80;81.40
14727;DHT22;7454;51.256;8.176;2022-10-19T09:02:56;9.10;81.80
14727;DHT22;7454;51.256;8.176;2022-10-19T09:08:13;9.10;81.80
14727;DHT22;7454;51.256;8.176;2022-10-19T09:10:40;9.10;81.40
14727;DHT22;7454;51.256;8.176;2022-10-19T09:13:32;9.10;81.90
14727;DHT22;7454;51.256;8.176;2022-10-19T09:16:01;9.20;81.60
14727;DHT22;7454;51.256;8.176;2022-10-19T09:18:28;9.20;81.50
14727;DHT22;7454;51.256;8.176;2022-10-19T09:21:00;9.30;81.60
14727;DHT22;7454;51.256;8.176;2022-10-19T09:23:39;9.40;81.80
14727;DHT22;7454;51.256;8.176;2022-10-19T09:26:15;9.50;81.50
14727;DHT22;7454;51.256;8.176;2022-10-19T09:31:31;9.60;81.80
14727;DHT22;7454;51.256;8.176;2022-10-19T09:33:59;9.60;81.80
14727;DHT22;7454;51.256;8.176;2022-10-19T09:36:34;9.70;81.90
14727;DHT22;7454;51.256;8.176;2022-10-19T09:39:03;9.80;81.80
14727;DHT22;7454;51.256;8.176;2022-10-19T09:41:29;9.70;81.40
14727;DHT22;7454;51.256;8.176;2022-10-19T09:43:54;9.70;81.70
14727;DHT22;7454;51.256;8.176;2022-10-19T09:46:31;9.70;82.00
14727;DHT22;7454;51.256;8.176;2022-10-19T09:49:17;9.80;82.30
14727;DHT22;7454;51.256;8.176;2022-10-19T09:51:50;10.00;82.30
14727;DHT22;7454;51.256;8.176;2022-10-19T09:54:30;9.80;82.20
14727;DHT22;7454;51.256;8.176;2022-10-19T09:56:56;9.90;82.40
14727;DHT22;7454;51.256;8.176;2022-10-19T09:59:23;9.90;82.30
14727;DHT22;7454;51.256;8.176;2022-10-19T10:02:02;9.90;82.30
14727;DHT22;7454;51.256;8.176;2022-10-19T10:04:35;10.00;82.30
14727;DHT22;7454;51.256;8.176;2022-10-19T10:07:00;10.00;81.80
14727;DHT22;7454;51.256;8.176;2022-10-19T10:09:28;10.10;81.70
14727;DHT22;7454;51.256;8.176;2022-10-19T10:11:55;10.30;81.40
14727;DHT22;7454;51.256;8.176;2022-10-19T10:14:22;10.20;82.00
14727;DHT22;7454;51.256;8.176;2022-10-19T10:16:56;10.30;81.80
14727;DHT22;7454;51.256;8.176;2022-10-19T10:19:26;10.30;81.70
14727;DHT22;7454;51.256;8.176;2022-10-19T10:21:53;10.40;81.90
14727;DHT22;7454;51.256;8.176;2022-10-19T10:24:22;10.40;81.70
14727;DHT22;7454;51.256;8.176;2022-10-19T10:26:58;10.60;81.90
14727;DHT22;7454;51.256;8.176;2022-10-19T10:29:33;10.50;81.60
14727;DHT22;7454;51.256;8.176;2022-10-19T10:34:39;10.70;81.80
14727;DHT22;7454;51.256;8.176;2022-10-19T10:37:15;10.70;81.60
14727;DHT22;7454;51.256;8.176;2022-10-19T10:39:44;10.80;81.80
14727;DHT22;7454;51.256;8.176;2022-10-19T10:42:12;10.90;81.80
14727;DHT22;7454;51.256;8.176;2022-10-19T10:44:43;11.00;81.70
14727;DHT22;7454;51.256;8.176;2022-10-19T10:47:12;11.00;81.70
14727;DHT22;7454;51.256;8.176;2022-10-19T10:49:38;11.10;81.40
14727;DHT22;7454;51.256;8.176;2022-10-19T10:52:09;11.10;81.10
14727;DHT22;7454;51.256;8.176;2022-10-19T10:54:39;11.20;81.40
14727;DHT22;7454;51.256;8.176;2022-10-19T11:02:34;11.30;81.00
14727;DHT22;7454;51.256;8.176;2022-10-19T11:05:16;11.40;81.50
14727;DHT22;7454;51.256;8.176;2022-10-19T11:08:05;11.40;80.90
14727;DHT22;7454;51.256;8.176;2022-10-19T11:10:45;11.50;80.80
14727;DHT22;7454;51.256;8.176;2022-10-19T11:13:28;11.50;80.80
14727;DHT22;7454;51.256;8.176;2022-10-19T11:15:58;11.50;80.50
14727;DHT22;7454;51.256;8.176;2022-10-19T11:21:01;11.60;80.70
14727;DHT22;7454;51.256;8.176;2022-10-19T11:23:39;11.60;80.40
14727;DHT22;7454;51.256;8.176;2022-10-19T11:26:15;11.70;80.70
14727;DHT22;7454;51.256;8.176;2022-10-19T11:29:05;11.90;80.40
14727;DHT22;7454;51.256;8.176;2022-10-19T11:31:43;11.80;80.10
14727;DHT22;7454;51.256;8.176;2022-10-19T11:39:54;11.80;80.10
14727;DHT22;7454;51.256;8.176;2022-10-19T11:45:36;11.90;80.30
14727;DHT22;7454;51.256;8.176;2022-10-19T11:48:26;11.90;80.20
14727;DHT22;7454;51.256;8.176;2022-10-19T11:53:47;12.00;79.90
14727;DHT22;7454;51.256;8.176;2022-10-19T11:58:52;12.00;80.10
14727;DHT22;7454;51.256;8.176;2022-10-19T12:04:25;12.10;80.60
14727;DHT22;7454;51.256;8.176;2022-10-19T12:12:41;12.10;79.70
14727;DHT22;7454;51.256;8.176;2022-10-19T12:17:36;12.30;79.40
14727;DHT22;7454;51.256;8.176;2022-10-19T12:20:07;12.20;79.70
14727;DHT22;7454;51.256;8.176;2022-10-19T12:22:44;12.30;79.60
14727;DHT22;7454;51.256;8.176;2022-10-19T12:25:11;12.30;79.50
14727;DHT22;7454;51.256;8.176;2022-10-19T12:27:38;12.40;79.50
14727;DHT22;7454;51.256;8.176;2022-10-19T12:30:22;12.40;79.60
14727;DHT22;7454;51.256;8.176;2022-10-19T12:35:48;12.50;79.50
14727;DHT22;7454;51.256;8.176;2022-10-19T12:38:34;12.50;79.30
14727;DHT22;7454;51.256;8.176;2022-10-19T12:41:06;12.60;79.80
14727;DHT22;7454;51.256;8.176;2022-10-19T12:43:44;12.70;79.90
14727;DHT22;7454;51.256;8.176;2022-10-19T12:46:26;12.60;79.70
14727;DHT22;7454;51.256;8.176;2022-10-19T12:51:51;12.70;79.30
14727;DHT22;7454;51.256;8.176;2022-10-19T12:54:21;12.70;79.40
14727;DHT22;7454;51.256;8.176;2022-10-19T12:56:49;12.70;79.20
14727;DHT22;7454;51.256;8.176;2022-10-19T12:59:22;12.80;79.40
14727;DHT22;7454;51.256;8.176;2022-10-19T13:01:49;12.80;79.20
14727;DHT22;7454;51.256;8.176;2022-10-19T13:04:29;12.80;79.10
14727;DHT22;7454;51.256;8.176;2022-10-19T13:22:40;13.00;79.10
14727;DHT22;7454;51.256;8.176;2022-10-19T13:27:49;13.00;79.30
14727;DHT22;7454;51.256;8.176;2022-10-19T13:36:04;13.10;78.90
14727;DHT22;7454;51.256;8.176;2022-10-19T13:41:21;13.20;78.90
14727;DHT22;7454;51.256;8.176;2022-10-19T13:46:20;13.20;78.90
14727;DHT22;7454;51.256;8.176;2022-10-19T13:59:40;13.40;78.20
14727;DHT22;7454;51.256;8.176;2022-10-19T14:05:18;13.40;78.20
14727;DHT22;7454;51.256;8.176;2022-10-19T14:13:36;13.40;78.40
14727;DHT22;7454;51.256;8.176;2022-10-19T14:16:02;13.40;78.40
14727;DHT22;7454;51.256;8.176;2022-10-19T14:18:29;13.40;78.40
14727;DHT22;7454;51.256;8.176;2022-10-19T14:23:27;13.30;78.60
14727;DHT22;7454;51.256;8.176;2022-10-19T14:26:01;13.40;78.80
14727;DHT22;7454;51.256;8.176;2022-10-19T14:28:31;13.30;78.60
14727;DHT22;7454;51.256;8.176;2022-10-19T14:31:19;13.30;78.60
14727;DHT22;7454;51.256;8.176;2022-10-19T14:33:45;13.30;78.70
14727;DHT22;7454;51.256;8.176;2022-10-19T14:36:16;13.20;79.00
14727;DHT22;7454;51.256;8.176;2022-10-19T14:38:45;13.20;78.70
14727;DHT22;7454;51.256;8.176;2022-10-19T14:43:52;13.20;78.80
14727;DHT22;7454;51.256;8.176;2022-10-19T14:46:19;13.20;78.80
14727;DHT22;7454;51.256;8.176;2022-10-19T14:48:45;13.10;78.80
14727;DHT22;7454;51.256;8.176;2022-10-19T14:54:05;13.10;78.80
14727;DHT22;7454;51.256;8.176;2022-10-19T14:56:37;13.00;78.70
14727;DHT22;7454;51.256;8.176;2022-10-19T14:59:18;13.00;78.70
14727;DHT22;7454;51.256;8.176;2022-10-19T15:01:49;13.00;78.80
14727;DHT22;7454;51.256;8.176;2022-10-19T15:04:17;12.90;78.70
14727;DHT22;7454;51.256;8.176;2022-10-19T15:06:44;12.90;78.90
14727;DHT22;7454;51.256;8.176;2022-10-19T15:09:30;12.90;79.10
14727;DHT22;7454;51.256;8.176;2022-10-19T15:11:58;12.80;79.00
14727;DHT22;7454;51.256;8.176;2022-10-19T15:14:31;12.80;79.00
14727;DHT22;7454;51.256;8.176;2022-10-19T15:16:58;12.80;79.20
14727;DHT22;7454;51.256;8.176;2022-10-19T15:24:38;12.70;79.50
14727;DHT22;7454;51.256;8.176;2022-10-19T15:27:18;12.60;79.30
14727;DHT22;7454;51.256;8.176;2022-10-19T15:30:21;12.60;79.50
14727;DHT22;7454;51.256;8.176;2022-10-19T15:32:44;12.50;79.30
14727;DHT22;7454;51.256;8.176;2022-10-19T15:35:14;12.40;79.40
14727;DHT22;7454;51.256;8.176;2022-10-19T15:37:44;12.40;79.50
14727;DHT22;7454;51.256;8.176;2022-10-19T15:40:17;12.40;79.50
14727;DHT22;7454;51.256;8.176;2022-10-19T15:42:45;12.30;79.50
14727;DHT22;7454;51.256;8.176;2022-10-19T15:48:24;12.20;79.30
14727;DHT22;7454;51.256;8.176;2022-10-19T15:50:52;12.10;79.00
14727;DHT22;7454;51.256;8.176;2022-10-19T15:53:18;12.10;79.20
14727;DHT22;7454;51.256;8.176;2022-10-19T15:55:44;12.10;79.40
14727;DHT22;7454;51.256;8.176;2022-10-19T15:58:10;12.10;78.80
14727;DHT22;7454;51.256;8.176;2022-10-19T16:00:37;12.00;78.70
14727;DHT22;7454;51.256;8.176;2022-10-19T16:03:03;12.10;78.70
14727;DHT22;7454;51.256;8.176;2022-10-19T16:05:29;12.00;79.10
14727;DHT22;7454;51.256;8.176;2022-10-19T16:07:56;12.00;78.80
14727;DHT22;7454;51.256;8.176;2022-10-19T16:10:23;11.90;78.80
14727;DHT22;7454;51.256;8.176;2022-10-19T16:12:49;11.90;79.00
14727;DHT22;7454;51.256;8.176;2022-10-19T16:15:19;11.80;78.90
14727;DHT22;7454;51.256;8.176;2022-10-19T16:17:50;11.80;78.90
14727;DHT22;7454;51.256;8.176;2022-10-19T16:20:18;11.70;79.10
14727;DHT22;7454;51.256;8.176;2022-10-19T16:22:44;11.70;78.90
14727;DHT22;7454;51.256;8.176;2022-10-19T16:25:10;11.70;78.80
14727;DHT22;7454;51.256;8.176;2022-10-19T16:27:37;11.60;78.90
14727;DHT22;7454;51.256;8.176;2022-10-19T16:30:03;11.50;78.90
14727;DHT22;7454;51.256;8.176;2022-10-19T16:32:29;11.50;78.90
14727;DHT22;7454;51.256;8.176;2022-10-19T16:34:54;11.70;79.10
14727;DHT22;7454;51.256;8.176;2022-10-19T16:37:20;11.40;79.10
14727;DHT22;7454;51.256;8.176;2022-10-19T16:39:46;11.30;79.40
14727;DHT22;7454;51.256;8.176;2022-10-19T16:42:11;11.40;79.30
14727;DHT22;7454;51.256;8.176;2022-10-19T16:44:37;11.10;79.40
14727;DHT22;7454;51.256;8.176;2022-10-19T16:47:03;11.10;79.30
14727;DHT22;7454;51.256;8.176;2022-10-19T16:49:30;11.00;79.40
14727;DHT22;7454;51.256;8.176;2022-10-19T16:51:56;11.00;79.50
14727;DHT22;7454;51.256;8.176;2022-10-19T16:54:21;11.00;79.60
14727;DHT22;7454;51.256;8.176;2022-10-19T16:56:47;10.90;79.50
14727;DHT22;7454;51.256;8.176;2022-10-19T16:59:14;10.90;79.40
14727;DHT22;7454;51.256;8.176;2022-10-19T17:01:41;10.90;79.40
14727;DHT22;7454;51.256;8.176;2022-10-19T17:04:08;10.90;79.40
14727;DHT22;7454;51.256;8.176;2022-10-19T17:06:34;10.90;79.50
14727;DHT22;7454;51.256;8.176;2022-10-19T17:09:00;10.90;79.60
14727;DHT22;7454;51.256;8.176;2022-10-19T17:11:27;10.80;79.60
14727;DHT22;7454;51.256;8.176;2022-10-19T17:13:55;10.80;79.60
14727;DHT22;7454;51.256;8.176;2022-10-19T17:16:23;10.70;79.80
14727;DHT22;7454;51.256;8.176;2022-10-19T17:18:52;10.70;79.70
14727;DHT22;7454;51.256;8.176;2022-10-19T17:24:24;10.60;79.70
14727;DHT22;7454;51.256;8.176;2022-10-19T17:26:51;10.60;79.70
14727;DHT22;7454;51.256;8.176;2022-10-19T17:29:18;10.60;79.80
14727;DHT22;7454;51.256;8.176;2022-10-19T17:31:44;10.60;80.00
14727;DHT22;7454;51.256;8.176;2022-10-19T17:34:10;10.60;79.70
14727;DHT22;7454;51.256;8.176;2022-10-19T17:36:37;10.50;79.70
14727;DHT22;7454;51.256;8.176;2022-10-19T17:39:05;10.60;79.60
14727;DHT22;7454;51.256;8.176;2022-10-19T17:41:33;10.50;79.50
14727;DHT22;7454;51.256;8.176;2022-10-19T17:43:59;10.50;79.70
14727;DHT22;7454;51.256;8.176;2022-10-19T17:46:26;10.40;79.60
14727;DHT22;7454;51.256;8.176;2022-10-19T17:48:55;10.30;79.60
14727;DHT22;7454;51.256;8.176;2022-10-19T17:51:22;10.20;79.70
14727;DHT22;7454;51.256;8.176;2022-10-19T17:53:53;10.10;79.80
14727;DHT22;7454;51.256;8.176;2022-10-19T17:56:20;10.10;79.80
14727;DHT22;7454;51.256;8.176;2022-10-19T17:58:47;10.00;79.60
14727;DHT22;7454;51.256;8.176;2022-10-19T18:01:16;10.00;79.60
14727;DHT22;7454;51.256;8.176;2022-10-19T18:03:44;10.00;79.80
14727;DHT22;7454;51.256;8.176;2022-10-19T18:06:11;10.00;79.70
14727;DHT22;7454;51.256;8.176;2022-10-19T18:08:42;10.00;79.70
14727;DHT22;7454;51.256;8.176;2022-10-19T18:11:10;10.00;79.60
14727;DHT22;7454;51.256;8.176;2022-10-19T18:13:38;9.90;79.70
14727;DHT22;7454;51.256;8.176;2022-10-19T18:16:05;9.90;79.70
14727;DHT22;7454;51.256;8.176;2022-10-19T18:18:33;9.90;79.70
14727;DHT22;7454;51.256;8.176;2022-10-19T18:21:04;9.80;79.80
14727;DHT22;7454;51.256;8.176;2022-10-19T18:23:30;9.80;79.70
14727;DHT22;7454;51.256;8.176;2022-10-19T18:26:00;9.80;79.70
14727;DHT22;7454;51.256;8.176;2022-10-19T18:28:26;9.80;79.80